• Join FlightAware (Why Join?)
  • Login
  • US Flag 
Gobble Gobble! 
05:34PM EST


 

Airport Tracker/Info


-or-


 

Live Flight TrackerFlight Track Log ✈ N3H ✈ 20-Oct-2013 ✈ KILM - KAPF

Flight Track Log - Related Links

Times and Time Zones

All times are in EDT time to prevent confusion due to time zone crossing. See the N3H flight status page for this flight to view local times or setup timezone preferences in your user account.

Time Position Orientation Groundspeed Altitude Reporting Facility
EDT Latitude Longitude Course Direction KTS MPH feet Rate Location/Type
08:57PM 34.1767 -77.8964 183° South 213 245 6,000  Level Washington Center
08:58PM 34.1156 -77.9397 210° Southwest 218 251 9,800 3,240 Climbing Washington Center
09:01PM 33.9339 -78.0669 210° Southwest 313 360 17,200 3,060 Climbing Jacksonville Center
09:02PM 33.8544 -78.1164 207° Southwest 331 381 20,500 2,340 Climbing Jacksonville Center
09:03PM 33.7592 -78.1889 212° Southwest 353 406 22,000 1,800 Climbing Jacksonville Center
09:04PM 33.6697 -78.2511 210° Southwest 367 422 24,100 1,920 Climbing Jacksonville Center
09:05PM 33.5800 -78.3131 210° Southwest 372 428 25,900 1,560 Climbing Jacksonville Center
09:06PM 33.4844 -78.3778 209° Southwest 379 436 27,300 1,440 Climbing Jacksonville Center
09:07PM 33.3886 -78.4425 209° Southwest 389 448 28,800 1,500 Climbing Jacksonville Center
09:08PM 33.2928 -78.5092 210° Southwest 394 453 30,300 1,380 Climbing Jacksonville Center
09:09PM 33.1950 -78.5761 210° Southwest 394 453 31,600 1,320 Climbing Jacksonville Center
09:10PM 33.0950 -78.6406 208° Southwest 399 459 33,000 1,440 Climbing Jacksonville Center
09:11PM 33.0011 -78.7092 212° Southwest 404 465 34,500 1,500 Climbing Jacksonville Center
09:12PM 32.9031 -78.7733 209° Southwest 404 465 36,100 1,320 Climbing Jacksonville Center
09:13PM 32.8114 -78.8367 210° Southwest 394 453 37,200 1,140 Climbing Jacksonville Center
09:14PM 32.7133 -78.9028 210° Southwest 394 453 38,400 1,080 Climbing Jacksonville Center
09:15PM 32.6172 -78.9686 210° Southwest 394 453 39,400 780 Climbing Jacksonville Center
09:16PM 32.5189 -79.0344 209° Southwest 394 453 40,000 300 Climbing Jacksonville Center
09:17PM 32.4228 -79.0978 209° Southwest 399 459 40,000  Level Jacksonville Center
09:18PM 32.3267 -79.1606 209° Southwest 399 459 40,000  Level Jacksonville Center
09:19PM 32.2306 -79.2283 211° Southwest 399 459 40,000  Level Jacksonville Center
09:20PM 32.1322 -79.2936 209° Southwest 404 465 40,000  Level Jacksonville Center
09:21PM 32.0336 -79.3589 209° Southwest 404 465 40,000  Level Jacksonville Center
09:22PM 31.9353 -79.4239 209° Southwest 409 471 40,000  Level Jacksonville Center
09:23PM 31.8281 -79.4719 201° Southwest 409 471 40,000  Level Jacksonville Center
09:24PM 31.7228 -79.5125 198° South 409 471 40,000  Level Jacksonville Center
09:25PM 31.6111 -79.5603 200° South 414 476 40,000  Level Jacksonville Center
09:26PM 31.5017 -79.6056 199° South 419 482 40,000  Level Jacksonville Center
09:27PM 31.3922 -79.6486 199° South 419 482 40,000  Level Jacksonville Center
09:28PM 31.2950 -79.6883 199° South 419 482 40,000  Level Jacksonville Center
09:29PM 31.1833 -79.7286 197° South 419 482 40,000  Level Jacksonville Center
09:30PM 31.0781 -79.7733 200° South 419 482 40,000  Level Jacksonville Center
09:31PM 30.9686 -79.8181 199° South 419 482 40,000  Level Jacksonville Center
09:32PM 30.8547 -79.8606 198° South 419 482 40,000  Level Jacksonville Center
09:33PM 30.7431 -79.9028 198° South 419 482 40,000  Level Jacksonville Center
09:34PM 30.6292 -79.9475 199° South 419 482 40,000  Level Jacksonville Center
09:35PM 30.5194 -79.9917 199° South 424 488 40,000  Level Jacksonville Center
09:36PM 30.4078 -80.0361 199° South 424 488 40,000  Level Jacksonville Center
09:37PM 30.2981 -80.0803 199° South 418 481 40,000  Level Jacksonville Center
09:38PM 30.1842 -80.1244 199° South 423 487 40,000  Level Jacksonville Center
09:39PM 30.0725 -80.1683 199° South 423 487 40,000  Level Jacksonville Center
09:40PM 29.9586 -80.2125 199° South 423 487 40,000  Level Jacksonville Center
09:41PM 29.8489 -80.2561 199° South 423 487 40,000  Level Jacksonville Center
09:42PM 29.7350 -80.2997 198° South 423 487 40,000  Level Jacksonville Center
09:43PM 29.6189 -80.3436 198° South 423 487 40,000  Level Jacksonville Center
09:44PM 29.4967 -80.3919 199° South 423 487 40,000  Level Jacksonville Center
09:44PM 29.3886 -80.4450 203° Southwest 422 486 40,000  Level Miami Center
09:45PM 29.2878 -80.4797 197° South 431 496 40,000 -420 Level Miami Center
09:46PM 29.1719 -80.5236 198° South 431 496 39,200 -1,140 Descending Miami Center
09:47PM 29.0625 -80.5625 197° South 431 496 37,800 -1,140 Descending Miami Center
09:48PM 28.9486 -80.6061 199° South 431 496 37,000 -600 Descending Miami Center
09:49PM 28.8369 -80.6450 197° South 431 496 36,600 -1,740 Descending Miami Center
09:50PM 28.7231 -80.6908 199° South 426 490 33,600 -3,120 Descending Miami Center
09:51PM 28.6072 -80.7319 197° South 434 499 30,400 -3,120 Descending Miami Center
09:52PM 28.5019 -80.7731 199° South 444 511 27,300 -2,880 Descending Miami Center
09:53PM 28.3922 -80.8142 198° South 437 503 24,800 -1,860 Descending Miami Center
09:54PM 28.2847 -80.8503 196° South 422 486 23,700 -1,080 Descending Miami Center
09:55PM 28.1814 -80.8914 199° South 410 472 22,700 -1,020 Descending Miami Center
09:56PM 28.0822 -80.9278 198° South 395 455 21,700 -1,020 Descending Miami Center
09:57PM 27.9853 -80.9644 198° South 382 440 20,700 -1,020 Descending Miami Center
09:58PM 27.8797 -81.0028 198° South 377 434 19,700 -1,080 Descending Miami Center
09:59PM 27.7806 -81.0414 199° South 376 433 18,600 -1,080 Descending Miami Center
10:00PM 27.6814 -81.0778 198° South 376 433 17,600 -1,020 Descending Miami Center
10:01PM 27.5864 -81.1139 199° South 371 427 16,600 -840 Descending Miami Center
10:02PM 27.4917 -81.1481 198° South 371 427 16,000 -360 Descending Miami Center
10:03PM 27.4069 -81.1797 198° South 365 420 16,000  Level Miami Center
10:04PM 27.3078 -81.2158 198° South 374 430 16,000 -900 Level Miami Center
10:05PM 27.2067 -81.2517 197° South 358 412 14,200 -1,740 Descending Miami Center
10:06PM 27.1222 -81.2836 199° South 337 388 12,600 -1,620 Descending Miami Center
10:07PM 27.0483 -81.3111 198° South 322 371 11,000 -1,320 Descending Miami Center
10:08PM 26.9575 -81.3447 198° South 317 365 10,000 -540 Descending Miami Center
10:09PM 26.8750 -81.3767 199° South 312 359 10,000 -600 Level Miami Center
10:10PM 26.8011 -81.3994 195° South 307 353 8,800 -1,380 Descending Miami Center
10:11PM 26.7242 -81.3964 178° South 294 338 7,300 -1,500 Descending Miami Center
10:12PM 26.6522 -81.4239 199° South 278 320 5,800 -1,200 Descending Miami Center
10:13PM 26.5864 -81.4606 206° Southwest 271 312 5,000 -840 Descending Miami Center
10:14PM 26.5225 -81.4978 208° Southwest 266 306 4,200 -1,020 Descending Miami Center
10:15PM 26.4567 -81.5344 207° Southwest 266 306 3,000 -1,260 Descending Miami Center